sensor_id;sensor_type;location;lat;lon;timestamp;P1;durP1;ratioP1;P2;durP2;ratioP2
11921;SDS011;6021;51.182;3.160;2023-05-07T00:02:07;19.13;;;17.13;;
11921;SDS011;6021;51.182;3.160;2023-05-07T00:04:36;19.17;;;17.37;;
11921;SDS011;6021;51.182;3.160;2023-05-07T00:07:05;17.97;;;16.43;;
11921;SDS011;6021;51.182;3.160;2023-05-07T00:09:33;23.43;;;21.23;;
11921;SDS011;6021;51.182;3.160;2023-05-07T00:12:02;22.70;;;20.50;;
11921;SDS011;6021;51.182;3.160;2023-05-07T00:14:30;16.80;;;15.00;;
11921;SDS011;6021;51.182;3.160;2023-05-07T00:16:59;15.77;;;13.10;;
11921;SDS011;6021;51.182;3.160;2023-05-07T00:19:27;13.97;;;12.47;;
11921;SDS011;6021;51.182;3.160;2023-05-07T00:21:55;24.50;;;22.03;;
11921;SDS011;6021;51.182;3.160;2023-05-07T00:24:24;20.50;;;18.53;;
11921;SDS011;6021;51.182;3.160;2023-05-07T00:26:53;26.77;;;24.13;;
11921;SDS011;6021;51.182;3.160;2023-05-07T00:29:21;24.47;;;22.07;;
11921;SDS011;6021;51.182;3.160;2023-05-07T00:31:49;23.27;;;21.07;;
11921;SDS011;6021;51.182;3.160;2023-05-07T00:34:18;19.93;;;18.03;;
11921;SDS011;6021;51.182;3.160;2023-05-07T00:36:47;22.60;;;20.50;;
11921;SDS011;6021;51.182;3.160;2023-05-07T00:39:15;22.77;;;20.70;;
11921;SDS011;6021;51.182;3.160;2023-05-07T00:41:43;23.00;;;20.63;;
11921;SDS011;6021;51.182;3.160;2023-05-07T00:44:12;27.80;;;25.03;;
11921;SDS011;6021;51.182;3.160;2023-05-07T00:46:41;26.27;;;23.63;;
11921;SDS011;6021;51.182;3.160;2023-05-07T00:49:09;22.00;;;19.97;;
11921;SDS011;6021;51.182;3.160;2023-05-07T00:51:38;26.13;;;23.43;;
11921;SDS011;6021;51.182;3.160;2023-05-07T00:54:06;21.33;;;19.43;;
11921;SDS011;6021;51.182;3.160;2023-05-07T00:56:36;20.77;;;18.77;;
11921;SDS011;6021;51.182;3.160;2023-05-07T00:59:05;22.90;;;20.80;;
11921;SDS011;6021;51.182;3.160;2023-05-07T01:01:34;21.80;;;19.83;;
11921;SDS011;6021;51.182;3.160;2023-05-07T01:04:03;24.13;;;21.83;;
11921;SDS011;6021;51.182;3.160;2023-05-07T01:06:31;29.00;;;25.97;;
11921;SDS011;6021;51.182;3.160;2023-05-07T01:09:00;25.13;;;22.63;;
11921;SDS011;6021;51.182;3.160;2023-05-07T01:11:31;22.93;;;20.83;;
11921;SDS011;6021;51.182;3.160;2023-05-07T01:13:59;23.40;;;21.17;;
11921;SDS011;6021;51.182;3.160;2023-05-07T01:16:28;24.13;;;21.73;;
11921;SDS011;6021;51.182;3.160;2023-05-07T01:18:57;27.77;;;25.03;;
11921;SDS011;6021;51.182;3.160;2023-05-07T01:21:26;26.20;;;23.70;;
11921;SDS011;6021;51.182;3.160;2023-05-07T01:23:56;24.27;;;21.97;;
11921;SDS011;6021;51.182;3.160;2023-05-07T01:26:25;25.30;;;22.90;;
11921;SDS011;6021;51.182;3.160;2023-05-07T01:28:54;23.27;;;21.07;;
11921;SDS011;6021;51.182;3.160;2023-05-07T01:31:22;22.30;;;20.27;;
11921;SDS011;6021;51.182;3.160;2023-05-07T01:33:51;20.77;;;18.97;;
11921;SDS011;6021;51.182;3.160;2023-05-07T01:36:21;20.27;;;18.37;;
11921;SDS011;6021;51.182;3.160;2023-05-07T01:38:52;18.67;;;16.97;;
11921;SDS011;6021;51.182;3.160;2023-05-07T01:41:21;20.47;;;18.50;;
11921;SDS011;6021;51.182;3.160;2023-05-07T01:43:50;20.27;;;18.27;;
11921;SDS011;6021;51.182;3.160;2023-05-07T01:46:21;17.67;;;16.07;;
11921;SDS011;6021;51.182;3.160;2023-05-07T01:48:50;16.07;;;13.47;;
11921;SDS011;6021;51.182;3.160;2023-05-07T01:51:18;18.97;;;17.27;;
11921;SDS011;6021;51.182;3.160;2023-05-07T01:53:47;15.00;;;13.50;;
11921;SDS011;6021;51.182;3.160;2023-05-07T01:56:17;16.97;;;15.07;;
11921;SDS011;6021;51.182;3.160;2023-05-07T01:58:46;17.60;;;15.73;;
11921;SDS011;6021;51.182;3.160;2023-05-07T02:01:15;16.83;;;15.13;;
11921;SDS011;6021;51.182;3.160;2023-05-07T02:03:43;20.83;;;15.70;;
11921;SDS011;6021;51.182;3.160;2023-05-07T02:06:11;20.60;;;16.67;;
11921;SDS011;6021;51.182;3.160;2023-05-07T02:08:40;19.60;;;16.43;;
11921;SDS011;6021;51.182;3.160;2023-05-07T02:11:08;22.80;;;16.80;;
11921;SDS011;6021;51.182;3.160;2023-05-07T02:13:37;20.93;;;16.60;;
11921;SDS011;6021;51.182;3.160;2023-05-07T02:16:05;20.03;;;16.30;;
11921;SDS011;6021;51.182;3.160;2023-05-07T02:18:34;17.77;;;16.07;;
11921;SDS011;6021;51.182;3.160;2023-05-07T02:21:02;17.07;;;14.87;;
11921;SDS011;6021;51.182;3.160;2023-05-07T02:23:30;20.90;;;18.70;;
11921;SDS011;6021;51.182;3.160;2023-05-07T02:25:59;18.20;;;16.50;;
11921;SDS011;6021;51.182;3.160;2023-05-07T02:28:27;20.33;;;18.40;;
11921;SDS011;6021;51.182;3.160;2023-05-07T02:30:55;17.37;;;14.87;;
11921;SDS011;6021;51.182;3.160;2023-05-07T02:33:25;21.70;;;19.47;;
11921;SDS011;6021;51.182;3.160;2023-05-07T02:35:53;22.47;;;16.63;;
11921;SDS011;6021;51.182;3.160;2023-05-07T02:38:22;22.37;;;19.87;;
11921;SDS011;6021;51.182;3.160;2023-05-07T02:40:50;21.93;;;19.83;;
11921;SDS011;6021;51.182;3.160;2023-05-07T02:43:19;19.60;;;17.70;;
11921;SDS011;6021;51.182;3.160;2023-05-07T02:45:47;19.70;;;17.80;;
11921;SDS011;6021;51.182;3.160;2023-05-07T02:48:15;22.27;;;19.87;;
11921;SDS011;6021;51.182;3.160;2023-05-07T02:50:43;22.67;;;20.37;;
11921;SDS011;6021;51.182;3.160;2023-05-07T02:53:12;22.27;;;20.07;;
11921;SDS011;6021;51.182;3.160;2023-05-07T02:55:40;23.97;;;21.37;;
11921;SDS011;6021;51.182;3.160;2023-05-07T02:58:08;25.57;;;22.87;;
11921;SDS011;6021;51.182;3.160;2023-05-07T03:00:37;25.00;;;22.07;;
11921;SDS011;6021;51.182;3.160;2023-05-07T03:03:05;24.83;;;22.23;;
11921;SDS011;6021;51.182;3.160;2023-05-07T03:05:33;23.73;;;21.27;;
11921;SDS011;6021;51.182;3.160;2023-05-07T03:08:02;24.03;;;21.60;;
11921;SDS011;6021;51.182;3.160;2023-05-07T03:10:30;23.07;;;20.63;;
11921;SDS011;6021;51.182;3.160;2023-05-07T03:12:59;22.63;;;20.23;;
11921;SDS011;6021;51.182;3.160;2023-05-07T03:15:28;24.10;;;20.83;;
11921;SDS011;6021;51.182;3.160;2023-05-07T03:17:57;23.37;;;20.77;;
11921;SDS011;6021;51.182;3.160;2023-05-07T03:20:25;22.53;;;20.23;;
11921;SDS011;6021;51.182;3.160;2023-05-07T03:22:53;24.10;;;21.57;;
11921;SDS011;6021;51.182;3.160;2023-05-07T03:25:22;23.60;;;21.20;;
11921;SDS011;6021;51.182;3.160;2023-05-07T03:27:50;24.33;;;21.80;;
11921;SDS011;6021;51.182;3.160;2023-05-07T03:30:18;25.83;;;23.07;;
11921;SDS011;6021;51.182;3.160;2023-05-07T03:32:47;30.40;;;23.57;;
11921;SDS011;6021;51.182;3.160;2023-05-07T03:35:15;26.47;;;23.63;;
11921;SDS011;6021;51.182;3.160;2023-05-07T03:37:43;27.23;;;23.70;;
11921;SDS011;6021;51.182;3.160;2023-05-07T03:40:12;24.73;;;22.13;;
11921;SDS011;6021;51.182;3.160;2023-05-07T03:42:40;25.83;;;23.10;;
11921;SDS011;6021;51.182;3.160;2023-05-07T03:45:08;27.53;;;23.23;;
11921;SDS011;6021;51.182;3.160;2023-05-07T03:47:37;25.17;;;22.63;;
11921;SDS011;6021;51.182;3.160;2023-05-07T03:50:05;21.20;;;19.10;;
11921;SDS011;6021;51.182;3.160;2023-05-07T03:52:34;26.00;;;21.63;;
11921;SDS011;6021;51.182;3.160;2023-05-07T03:55:02;26.00;;;22.60;;
11921;SDS011;6021;51.182;3.160;2023-05-07T03:57:30;25.20;;;22.57;;
11921;SDS011;6021;51.182;3.160;2023-05-07T03:59:59;24.70;;;22.07;;
11921;SDS011;6021;51.182;3.160;2023-05-07T04:02:29;24.90;;;22.50;;
11921;SDS011;6021;51.182;3.160;2023-05-07T04:04:57;25.43;;;22.73;;
11921;SDS011;6021;51.182;3.160;2023-05-07T04:07:25;25.47;;;22.77;;
11921;SDS011;6021;51.182;3.160;2023-05-07T04:09:54;25.57;;;22.83;;
11921;SDS011;6021;51.182;3.160;2023-05-07T04:12:22;25.93;;;22.87;;
11921;SDS011;6021;51.182;3.160;2023-05-07T04:14:51;27.93;;;23.03;;
11921;SDS011;6021;51.182;3.160;2023-05-07T04:17:19;26.57;;;22.80;;
11921;SDS011;6021;51.182;3.160;2023-05-07T04:19:47;24.90;;;22.30;;
11921;SDS011;6021;51.182;3.160;2023-05-07T04:22:16;24.63;;;22.23;;
11921;SDS011;6021;51.182;3.160;2023-05-07T04:24:44;22.57;;;20.30;;
11921;SDS011;6021;51.182;3.160;2023-05-07T04:27:12;22.80;;;20.50;;
11921;SDS011;6021;51.182;3.160;2023-05-07T04:29:41;21.57;;;19.60;;
11921;SDS011;6021;51.182;3.160;2023-05-07T04:32:11;20.50;;;18.63;;
11921;SDS011;6021;51.182;3.160;2023-05-07T04:34:39;20.10;;;18.20;;
11921;SDS011;6021;51.182;3.160;2023-05-07T04:37:09;18.27;;;16.60;;
11921;SDS011;6021;51.182;3.160;2023-05-07T04:39:37;14.90;;;12.73;;
11921;SDS011;6021;51.182;3.160;2023-05-07T04:42:06;22.57;;;20.27;;
11921;SDS011;6021;51.182;3.160;2023-05-07T04:44:35;24.00;;;21.47;;
11921;SDS011;6021;51.182;3.160;2023-05-07T04:47:03;25.37;;;22.87;;
11921;SDS011;6021;51.182;3.160;2023-05-07T04:49:32;26.00;;;23.27;;
11921;SDS011;6021;51.182;3.160;2023-05-07T04:52:01;25.73;;;23.13;;
11921;SDS011;6021;51.182;3.160;2023-05-07T04:54:29;25.97;;;22.83;;
11921;SDS011;6021;51.182;3.160;2023-05-07T04:56:58;25.87;;;21.70;;
11921;SDS011;6021;51.182;3.160;2023-05-07T04:59:26;23.03;;;20.73;;
11921;SDS011;6021;51.182;3.160;2023-05-07T05:01:55;24.33;;;21.90;;
11921;SDS011;6021;51.182;3.160;2023-05-07T05:04:24;24.73;;;22.13;;
11921;SDS011;6021;51.182;3.160;2023-05-07T05:06:52;26.23;;;23.33;;
11921;SDS011;6021;51.182;3.160;2023-05-07T05:09:20;25.30;;;22.80;;
11921;SDS011;6021;51.182;3.160;2023-05-07T05:11:49;24.33;;;21.73;;
11921;SDS011;6021;51.182;3.160;2023-05-07T05:14:18;24.93;;;22.33;;
11921;SDS011;6021;51.182;3.160;2023-05-07T05:16:46;25.73;;;23.17;;
11921;SDS011;6021;51.182;3.160;2023-05-07T05:19:14;27.27;;;23.53;;
11921;SDS011;6021;51.182;3.160;2023-05-07T05:21:43;26.03;;;23.23;;
11921;SDS011;6021;51.182;3.160;2023-05-07T05:24:11;22.40;;;20.17;;
11921;SDS011;6021;51.182;3.160;2023-05-07T05:26:39;22.00;;;19.93;;
11921;SDS011;6021;51.182;3.160;2023-05-07T05:29:08;20.23;;;18.33;;
11921;SDS011;6021;51.182;3.160;2023-05-07T05:31:36;20.73;;;18.70;;
11921;SDS011;6021;51.182;3.160;2023-05-07T05:34:05;16.20;;;14.10;;
11921;SDS011;6021;51.182;3.160;2023-05-07T05:36:33;20.17;;;18.30;;
11921;SDS011;6021;51.182;3.160;2023-05-07T05:39:01;15.63;;;14.00;;
11921;SDS011;6021;51.182;3.160;2023-05-07T05:41:30;17.27;;;14.33;;
11921;SDS011;6021;51.182;3.160;2023-05-07T05:43:58;17.70;;;15.90;;
11921;SDS011;6021;51.182;3.160;2023-05-07T05:46:26;15.97;;;12.97;;
11921;SDS011;6021;51.182;3.160;2023-05-07T05:48:55;15.23;;;13.67;;
11921;SDS011;6021;51.182;3.160;2023-05-07T05:51:23;16.80;;;14.60;;
11921;SDS011;6021;51.182;3.160;2023-05-07T05:53:52;14.87;;;12.70;;
11921;SDS011;6021;51.182;3.160;2023-05-07T05:56:21;14.07;;;11.90;;
11921;SDS011;6021;51.182;3.160;2023-05-07T05:58:49;14.60;;;12.30;;
11921;SDS011;6021;51.182;3.160;2023-05-07T06:01:18;16.73;;;14.93;;
11921;SDS011;6021;51.182;3.160;2023-05-07T06:03:46;16.93;;;15.13;;
11921;SDS011;6021;51.182;3.160;2023-05-07T06:06:15;15.23;;;12.87;;
11921;SDS011;6021;51.182;3.160;2023-05-07T06:08:43;16.10;;;13.57;;
11921;SDS011;6021;51.182;3.160;2023-05-07T06:11:11;15.33;;;13.73;;
11921;SDS011;6021;51.182;3.160;2023-05-07T06:13:40;17.77;;;14.00;;
11921;SDS011;6021;51.182;3.160;2023-05-07T06:16:08;13.40;;;11.27;;
11921;SDS011;6021;51.182;3.160;2023-05-07T06:18:36;12.90;;;11.43;;
11921;SDS011;6021;51.182;3.160;2023-05-07T06:21:05;14.40;;;11.27;;
11921;SDS011;6021;51.182;3.160;2023-05-07T06:23:33;13.43;;;11.30;;
11921;SDS011;6021;51.182;3.160;2023-05-07T06:26:01;14.43;;;12.57;;
11921;SDS011;6021;51.182;3.160;2023-05-07T06:28:30;15.47;;;13.73;;
11921;SDS011;6021;51.182;3.160;2023-05-07T06:31:23;14.80;;;12.90;;
11921;SDS011;6021;51.182;3.160;2023-05-07T06:33:43;13.33;;;11.87;;
11921;SDS011;6021;51.182;3.160;2023-05-07T06:36:12;15.33;;;12.40;;
11921;SDS011;6021;51.182;3.160;2023-05-07T06:38:40;15.47;;;13.00;;
11921;SDS011;6021;51.182;3.160;2023-05-07T06:41:09;15.67;;;11.70;;
11921;SDS011;6021;51.182;3.160;2023-05-07T06:43:37;12.17;;;10.63;;
11921;SDS011;6021;51.182;3.160;2023-05-07T06:46:06;18.27;;;14.07;;
11921;SDS011;6021;51.182;3.160;2023-05-07T06:48:34;16.27;;;12.83;;
11921;SDS011;6021;51.182;3.160;2023-05-07T06:51:02;16.73;;;13.20;;
11921;SDS011;6021;51.182;3.160;2023-05-07T06:53:31;13.73;;;12.23;;
11921;SDS011;6021;51.182;3.160;2023-05-07T06:56:00;15.03;;;11.40;;
11921;SDS011;6021;51.182;3.160;2023-05-07T06:58:29;17.87;;;13.07;;
11921;SDS011;6021;51.182;3.160;2023-05-07T07:00:57;13.80;;;10.50;;
11921;SDS011;6021;51.182;3.160;2023-05-07T07:03:26;17.33;;;12.43;;
11921;SDS011;6021;51.182;3.160;2023-05-07T07:05:54;14.93;;;12.87;;
11921;SDS011;6021;51.182;3.160;2023-05-07T07:08:22;14.07;;;11.03;;
11921;SDS011;6021;51.182;3.160;2023-05-07T07:10:51;14.23;;;11.50;;
11921;SDS011;6021;51.182;3.160;2023-05-07T07:13:19;12.17;;;10.17;;
11921;SDS011;6021;51.182;3.160;2023-05-07T07:15:47;17.10;;;13.00;;
11921;SDS011;6021;51.182;3.160;2023-05-07T07:18:16;12.37;;;10.80;;
11921;SDS011;6021;51.182;3.160;2023-05-07T07:20:44;20.13;;;11.90;;
11921;SDS011;6021;51.182;3.160;2023-05-07T07:23:13;14.33;;;11.07;;
11921;SDS011;6021;51.182;3.160;2023-05-07T07:25:41;11.90;;;9.20;;
11921;SDS011;6021;51.182;3.160;2023-05-07T07:28:09;15.90;;;10.80;;
11921;SDS011;6021;51.182;3.160;2023-05-07T07:30:38;14.67;;;11.97;;
11921;SDS011;6021;51.182;3.160;2023-05-07T07:33:07;14.60;;;10.87;;
11921;SDS011;6021;51.182;3.160;2023-05-07T07:35:35;13.77;;;10.70;;
11921;SDS011;6021;51.182;3.160;2023-05-07T07:38:03;16.07;;;10.87;;
11921;SDS011;6021;51.182;3.160;2023-05-07T07:40:33;11.10;;;9.37;;
11921;SDS011;6021;51.182;3.160;2023-05-07T07:43:02;17.43;;;11.27;;
11921;SDS011;6021;51.182;3.160;2023-05-07T07:45:31;16.90;;;11.53;;
11921;SDS011;6021;51.182;3.160;2023-05-07T07:47:59;14.30;;;10.77;;
11921;SDS011;6021;51.182;3.160;2023-05-07T07:50:28;13.60;;;10.60;;
11921;SDS011;6021;51.182;3.160;2023-05-07T07:52:56;17.47;;;11.80;;
11921;SDS011;6021;51.182;3.160;2023-05-07T07:55:24;16.20;;;11.70;;
11921;SDS011;6021;51.182;3.160;2023-05-07T07:57:53;14.00;;;11.97;;
11921;SDS011;6021;51.182;3.160;2023-05-07T08:00:22;15.80;;;12.40;;
11921;SDS011;6021;51.182;3.160;2023-05-07T08:02:50;16.00;;;11.97;;
11921;SDS011;6021;51.182;3.160;2023-05-07T08:05:18;14.93;;;13.40;;
11921;SDS011;6021;51.182;3.160;2023-05-07T08:07:50;12.57;;;10.50;;
11921;SDS011;6021;51.182;3.160;2023-05-07T08:10:19;16.57;;;13.00;;
11921;SDS011;6021;51.182;3.160;2023-05-07T08:12:49;16.53;;;12.13;;
11921;SDS011;6021;51.182;3.160;2023-05-07T08:15:17;15.80;;;12.10;;
11921;SDS011;6021;51.182;3.160;2023-05-07T08:17:46;15.70;;;11.27;;
11921;SDS011;6021;51.182;3.160;2023-05-07T08:20:14;19.10;;;12.10;;
11921;SDS011;6021;51.182;3.160;2023-05-07T08:22:42;18.33;;;13.20;;
11921;SDS011;6021;51.182;3.160;2023-05-07T08:25:11;20.23;;;13.50;;
11921;SDS011;6021;51.182;3.160;2023-05-07T08:27:41;21.03;;;15.80;;
11921;SDS011;6021;51.182;3.160;2023-05-07T08:30:11;18.03;;;15.03;;
11921;SDS011;6021;51.182;3.160;2023-05-07T08:32:40;23.17;;;15.53;;
11921;SDS011;6021;51.182;3.160;2023-05-07T08:35:11;19.23;;;15.97;;
11921;SDS011;6021;51.182;3.160;2023-05-07T08:37:39;20.00;;;15.43;;
11921;SDS011;6021;51.182;3.160;2023-05-07T08:40:08;21.43;;;15.40;;
11921;SDS011;6021;51.182;3.160;2023-05-07T08:42:36;16.70;;;14.17;;
11921;SDS011;6021;51.182;3.160;2023-05-07T08:45:07;14.07;;;11.83;;
11921;SDS011;6021;51.182;3.160;2023-05-07T08:47:44;16.57;;;13.70;;
11921;SDS011;6021;51.182;3.160;2023-05-07T08:50:14;14.97;;;12.67;;
11921;SDS011;6021;51.182;3.160;2023-05-07T08:52:42;16.00;;;13.37;;
11921;SDS011;6021;51.182;3.160;2023-05-07T08:55:11;18.47;;;14.57;;
11921;SDS011;6021;51.182;3.160;2023-05-07T08:57:41;15.60;;;13.43;;
11921;SDS011;6021;51.182;3.160;2023-05-07T09:00:10;17.90;;;13.10;;
11921;SDS011;6021;51.182;3.160;2023-05-07T09:02:39;18.83;;;12.80;;
11921;SDS011;6021;51.182;3.160;2023-05-07T09:05:07;13.83;;;11.57;;
11921;SDS011;6021;51.182;3.160;2023-05-07T09:07:36;14.13;;;11.33;;
11921;SDS011;6021;51.182;3.160;2023-05-07T09:10:04;14.70;;;12.13;;
11921;SDS011;6021;51.182;3.160;2023-05-07T09:12:33;17.27;;;12.77;;
11921;SDS011;6021;51.182;3.160;2023-05-07T09:15:02;16.53;;;13.27;;
11921;SDS011;6021;51.182;3.160;2023-05-07T09:17:31;13.87;;;12.40;;
11921;SDS011;6021;51.182;3.160;2023-05-07T09:20:03;20.07;;;14.10;;
11921;SDS011;6021;51.182;3.160;2023-05-07T09:22:35;19.03;;;15.47;;
11921;SDS011;6021;51.182;3.160;2023-05-07T09:25:05;17.80;;;12.67;;
11921;SDS011;6021;51.182;3.160;2023-05-07T09:27:34;16.83;;;13.60;;
11921;SDS011;6021;51.182;3.160;2023-05-07T09:30:09;20.30;;;14.97;;
11921;SDS011;6021;51.182;3.160;2023-05-07T09:32:36;14.63;;;12.53;;
11921;SDS011;6021;51.182;3.160;2023-05-07T09:35:05;16.20;;;14.50;;
11921;SDS011;6021;51.182;3.160;2023-05-07T09:37:46;17.40;;;13.47;;
11921;SDS011;6021;51.182;3.160;2023-05-07T09:40:21;16.17;;;13.00;;
11921;SDS011;6021;51.182;3.160;2023-05-07T09:42:50;18.53;;;14.37;;
11921;SDS011;6021;51.182;3.160;2023-05-07T09:45:22;14.87;;;12.00;;
11921;SDS011;6021;51.182;3.160;2023-05-07T09:47:58;12.07;;;10.40;;
11921;SDS011;6021;51.182;3.160;2023-05-07T09:50:28;10.90;;;9.03;;
11921;SDS011;6021;51.182;3.160;2023-05-07T09:52:59;11.17;;;9.00;;
11921;SDS011;6021;51.182;3.160;2023-05-07T09:55:29;10.43;;;8.73;;
11921;SDS011;6021;51.182;3.160;2023-05-07T09:57:58;12.87;;;9.60;;
11921;SDS011;6021;51.182;3.160;2023-05-07T10:00:28;12.03;;;9.07;;
11921;SDS011;6021;51.182;3.160;2023-05-07T10:02:59;9.73;;;7.60;;
11921;SDS011;6021;51.182;3.160;2023-05-07T10:05:30;10.27;;;7.00;;
11921;SDS011;6021;51.182;3.160;2023-05-07T10:08:00;7.73;;;6.93;;
11921;SDS011;6021;51.182;3.160;2023-05-07T10:10:29;10.00;;;6.60;;
11921;SDS011;6021;51.182;3.160;2023-05-07T10:12:58;9.10;;;6.03;;
11921;SDS011;6021;51.182;3.160;2023-05-07T10:15:27;9.80;;;6.20;;
11921;SDS011;6021;51.182;3.160;2023-05-07T10:17:57;7.57;;;5.83;;
11921;SDS011;6021;51.182;3.160;2023-05-07T10:20:25;6.67;;;5.13;;
11921;SDS011;6021;51.182;3.160;2023-05-07T10:22:54;7.63;;;4.97;;
11921;SDS011;6021;51.182;3.160;2023-05-07T10:25:33;6.63;;;5.00;;
11921;SDS011;6021;51.182;3.160;2023-05-07T10:28:00;5.50;;;4.20;;
11921;SDS011;6021;51.182;3.160;2023-05-07T10:30:38;8.37;;;5.10;;
11921;SDS011;6021;51.182;3.160;2023-05-07T10:33:22;6.47;;;5.37;;
11921;SDS011;6021;51.182;3.160;2023-05-07T10:35:52;6.87;;;5.50;;
11921;SDS011;6021;51.182;3.160;2023-05-07T10:38:26;6.27;;;5.30;;
11921;SDS011;6021;51.182;3.160;2023-05-07T10:40:55;7.93;;;4.90;;
11921;SDS011;6021;51.182;3.160;2023-05-07T10:43:24;9.93;;;6.13;;
11921;SDS011;6021;51.182;3.160;2023-05-07T10:51:32;8.30;;;5.20;;
11921;SDS011;6021;51.182;3.160;2023-05-07T10:56:42;8.20;;;5.50;;
11921;SDS011;6021;51.182;3.160;2023-05-07T11:02:03;3.83;;;3.43;;
11921;SDS011;6021;51.182;3.160;2023-05-07T11:04:24;7.47;;;3.87;;
11921;SDS011;6021;51.182;3.160;2023-05-07T11:07:40;5.30;;;3.80;;
11921;SDS011;6021;51.182;3.160;2023-05-07T11:15:09;4.47;;;2.90;;
11921;SDS011;6021;51.182;3.160;2023-05-07T11:17:57;5.63;;;2.63;;
11921;SDS011;6021;51.182;3.160;2023-05-07T11:26:04;5.63;;;3.00;;
11921;SDS011;6021;51.182;3.160;2023-05-07T11:28:37;4.97;;;2.83;;
11921;SDS011;6021;51.182;3.160;2023-05-07T11:31:10;3.77;;;2.87;;
11921;SDS011;6021;51.182;3.160;2023-05-07T11:33:38;4.77;;;3.03;;
11921;SDS011;6021;51.182;3.160;2023-05-07T11:36:07;5.27;;;3.20;;
11921;SDS011;6021;51.182;3.160;2023-05-07T11:38:38;5.80;;;3.63;;
11921;SDS011;6021;51.182;3.160;2023-05-07T11:41:07;3.23;;;2.80;;
11921;SDS011;6021;51.182;3.160;2023-05-07T11:43:36;13.43;;;3.03;;
11921;SDS011;6021;51.182;3.160;2023-05-07T11:46:07;6.97;;;2.57;;
11921;SDS011;6021;51.182;3.160;2023-05-07T11:48:37;3.43;;;2.33;;
11921;SDS011;6021;51.182;3.160;2023-05-07T11:51:06;4.27;;;2.50;;
11921;SDS011;6021;51.182;3.160;2023-05-07T11:53:42;2.90;;;2.30;;
11921;SDS011;6021;51.182;3.160;2023-05-07T11:56:14;3.30;;;2.20;;
11921;SDS011;6021;51.182;3.160;2023-05-07T11:58:44;3.53;;;1.90;;
11921;SDS011;6021;51.182;3.160;2023-05-07T12:01:17;2.73;;;1.90;;
11921;SDS011;6021;51.182;3.160;2023-05-07T12:03:45;2.20;;;2.00;;
11921;SDS011;6021;51.182;3.160;2023-05-07T12:06:15;2.23;;;1.90;;
11921;SDS011;6021;51.182;3.160;2023-05-07T12:08:44;2.70;;;1.90;;
11921;SDS011;6021;51.182;3.160;2023-05-07T12:11:15;3.63;;;2.00;;
11921;SDS011;6021;51.182;3.160;2023-05-07T12:13:45;2.97;;;2.00;;
11921;SDS011;6021;51.182;3.160;2023-05-07T12:16:13;2.80;;;2.40;;
11921;SDS011;6021;51.182;3.160;2023-05-07T12:18:42;2.50;;;2.30;;
11921;SDS011;6021;51.182;3.160;2023-05-07T12:21:11;4.40;;;2.30;;
11921;SDS011;6021;51.182;3.160;2023-05-07T12:23:39;3.00;;;2.27;;
11921;SDS011;6021;51.182;3.160;2023-05-07T12:26:08;2.67;;;2.47;;
11921;SDS011;6021;51.182;3.160;2023-05-07T12:28:37;3.13;;;2.27;;
11921;SDS011;6021;51.182;3.160;2023-05-07T12:31:06;3.30;;;2.67;;
11921;SDS011;6021;51.182;3.160;2023-05-07T12:33:35;2.97;;;2.10;;
11921;SDS011;6021;51.182;3.160;2023-05-07T12:36:05;3.60;;;2.63;;
11921;SDS011;6021;51.182;3.160;2023-05-07T12:38:35;2.83;;;2.40;;
11921;SDS011;6021;51.182;3.160;2023-05-07T12:41:05;2.40;;;2.20;;
11921;SDS011;6021;51.182;3.160;2023-05-07T12:43:35;3.03;;;2.30;;
11921;SDS011;6021;51.182;3.160;2023-05-07T12:46:06;2.43;;;2.23;;
11921;SDS011;6021;51.182;3.160;2023-05-07T12:48:38;3.93;;;1.80;;
11921;SDS011;6021;51.182;3.160;2023-05-07T12:51:13;3.87;;;1.63;;
11921;SDS011;6021;51.182;3.160;2023-05-07T12:53:42;1.87;;;1.70;;
11921;SDS011;6021;51.182;3.160;2023-05-07T12:56:11;2.03;;;1.50;;
11921;SDS011;6021;51.182;3.160;2023-05-07T12:58:41;2.20;;;1.23;;
11921;SDS011;6021;51.182;3.160;2023-05-07T13:01:09;1.40;;;1.30;;
11921;SDS011;6021;51.182;3.160;2023-05-07T13:03:39;2.17;;;1.27;;
11921;SDS011;6021;51.182;3.160;2023-05-07T13:06:08;1.63;;;1.40;;
11921;SDS011;6021;51.182;3.160;2023-05-07T13:08:39;1.30;;;1.20;;
11921;SDS011;6021;51.182;3.160;2023-05-07T13:11:12;1.70;;;1.30;;
11921;SDS011;6021;51.182;3.160;2023-05-07T13:13:41;2.37;;;1.23;;
11921;SDS011;6021;51.182;3.160;2023-05-07T13:16:10;2.13;;;1.40;;
11921;SDS011;6021;51.182;3.160;2023-05-07T13:18:39;1.93;;;1.30;;
11921;SDS011;6021;51.182;3.160;2023-05-07T13:21:09;2.27;;;1.33;;
11921;SDS011;6021;51.182;3.160;2023-05-07T13:23:39;2.10;;;1.20;;
11921;SDS011;6021;51.182;3.160;2023-05-07T13:26:07;5.40;;;1.30;;
11921;SDS011;6021;51.182;3.160;2023-05-07T13:28:37;1.97;;;1.50;;
11921;SDS011;6021;51.182;3.160;2023-05-07T13:31:05;2.00;;;1.80;;
11921;SDS011;6021;51.182;3.160;2023-05-07T13:33:34;3.17;;;1.37;;
11921;SDS011;6021;51.182;3.160;2023-05-07T13:36:02;2.07;;;1.53;;
11921;SDS011;6021;51.182;3.160;2023-05-07T13:38:32;1.77;;;1.60;;
11921;SDS011;6021;51.182;3.160;2023-05-07T13:41:00;1.63;;;1.53;;
11921;SDS011;6021;51.182;3.160;2023-05-07T13:43:28;2.17;;;1.73;;
11921;SDS011;6021;51.182;3.160;2023-05-07T13:45:59;2.87;;;1.60;;
11921;SDS011;6021;51.182;3.160;2023-05-07T13:48:27;3.27;;;1.83;;
11921;SDS011;6021;51.182;3.160;2023-05-07T13:50:56;2.33;;;1.70;;
11921;SDS011;6021;51.182;3.160;2023-05-07T13:53:24;2.90;;;1.70;;
11921;SDS011;6021;51.182;3.160;2023-05-07T13:55:53;2.00;;;1.80;;
11921;SDS011;6021;51.182;3.160;2023-05-07T13:58:21;1.73;;;1.63;;
11921;SDS011;6021;51.182;3.160;2023-05-07T14:00:50;2.30;;;1.80;;
11921;SDS011;6021;51.182;3.160;2023-05-07T14:03:19;2.57;;;1.50;;
11921;SDS011;6021;51.182;3.160;2023-05-07T14:06:01;2.33;;;1.67;;
11921;SDS011;6021;51.182;3.160;2023-05-07T14:08:44;3.57;;;2.00;;
11921;SDS011;6021;51.182;3.160;2023-05-07T14:11:13;3.20;;;2.00;;
11921;SDS011;6021;51.182;3.160;2023-05-07T14:13:43;4.37;;;1.90;;
11921;SDS011;6021;51.182;3.160;2023-05-07T14:16:11;1.87;;;1.70;;
11921;SDS011;6021;51.182;3.160;2023-05-07T14:18:41;1.77;;;1.30;;
11921;SDS011;6021;51.182;3.160;2023-05-07T14:21:09;2.60;;;1.40;;
11921;SDS011;6021;51.182;3.160;2023-05-07T14:23:38;2.33;;;1.70;;
11921;SDS011;6021;51.182;3.160;2023-05-07T14:26:14;1.30;;;1.20;;
11921;SDS011;6021;51.182;3.160;2023-05-07T14:28:42;2.17;;;1.40;;
11921;SDS011;6021;51.182;3.160;2023-05-07T14:31:12;1.40;;;1.30;;
11921;SDS011;6021;51.182;3.160;2023-05-07T14:33:41;1.47;;;1.30;;
11921;SDS011;6021;51.182;3.160;2023-05-07T14:36:11;2.67;;;1.40;;
11921;SDS011;6021;51.182;3.160;2023-05-07T14:38:39;4.00;;;3.60;;
11921;SDS011;6021;51.182;3.160;2023-05-07T14:41:17;4.83;;;4.13;;
11921;SDS011;6021;51.182;3.160;2023-05-07T14:43:51;6.97;;;6.27;;
11921;SDS011;6021;51.182;3.160;2023-05-07T14:46:27;16.53;;;8.40;;
11921;SDS011;6021;51.182;3.160;2023-05-07T14:48:59;15.23;;;10.00;;
11921;SDS011;6021;51.182;3.160;2023-05-07T14:51:35;15.77;;;12.53;;
11921;SDS011;6021;51.182;3.160;2023-05-07T14:54:00;15.33;;;12.97;;
11921;SDS011;6021;51.182;3.160;2023-05-07T14:56:30;16.80;;;14.60;;
11921;SDS011;6021;51.182;3.160;2023-05-07T14:58:58;15.00;;;11.67;;
11921;SDS011;6021;51.182;3.160;2023-05-07T15:01:41;14.17;;;11.43;;
11921;SDS011;6021;51.182;3.160;2023-05-07T15:04:13;14.27;;;11.80;;
11921;SDS011;6021;51.182;3.160;2023-05-07T15:06:42;15.90;;;12.70;;
11921;SDS011;6021;51.182;3.160;2023-05-07T15:09:12;14.07;;;11.50;;
11921;SDS011;6021;51.182;3.160;2023-05-07T15:11:43;15.53;;;13.77;;
11921;SDS011;6021;51.182;3.160;2023-05-07T15:14:18;18.90;;;14.10;;
11921;SDS011;6021;51.182;3.160;2023-05-07T15:16:54;15.57;;;14.00;;
11921;SDS011;6021;51.182;3.160;2023-05-07T15:19:27;15.57;;;13.87;;